Time;durP1;ratioP1;P1;durP2;ratioP2;P2;SDS_P1;SDS_P2;PMS_P1;PMS_P2;Temp;Humidity;BMP_temperature;BMP_pressure;BME280_temperature;BME280_humidity;BME280_pressure;Samples;Min_cycle;Max_cycle;Signal;HPM_P1;HPM_P2
2021/04/09 00:00:28;;;;;;;0.20;0.20;;;;;;;;;;5062129;28;20211;-71
2021/04/09 00:02:56;;;;;;;0.20;0.20;;;;;;;;;;5064055;28;20391;-71
2021/04/09 00:05:23;;;;;;;0.20;0.20;;;;;;;;;;5064151;28;20228;-71
2021/04/09 00:07:49;;;;;;;0.20;0.20;;;;;;;;;;5064194;28;20203;-71
2021/04/09 00:10:15;;;;;;;0.20;0.20;;;;;;;;;;5064261;28;20491;-71
2021/04/09 00:12:40;;;;;;;0.20;0.20;;;;;;;;;;5057621;28;20259;-71
2021/04/09 00:15:09;;;;;;;1.40;1.40;;;;;;;;;;5060348;28;20265;-71
2021/04/09 00:17:34;;;;;;;0.20;0.20;;;;;;;;;;5051450;28;20252;-70
2021/04/09 00:20:00;;;;;;;0.50;0.50;;;;;;;;;;5052318;28;20217;-70
2021/04/09 00:22:26;;;;;;;0.20;0.20;;;;;;;;;;5052137;28;20547;-71
2021/04/09 00:24:52;;;;;;;0.20;0.20;;;;;;;;;;5063650;28;20307;-71
2021/04/09 00:27:18;;;;;;;0.20;0.20;;;;;;;;;;5064021;28;20226;-70
2021/04/09 00:29:44;;;;;;;0.20;0.20;;;;;;;;;;5064186;28;20510;-71
2021/04/09 00:32:11;;;;;;;0.20;0.20;;;;;;;;;;5063127;28;20207;-70
2021/04/09 00:34:37;;;;;;;0.20;0.20;;;;;;;;;;5064193;28;20245;-70
2021/04/09 00:37:02;;;;;;;0.20;0.20;;;;;;;;;;5063875;28;20247;-71
2021/04/09 00:39:28;;;;;;;0.30;0.30;;;;;;;;;;5056978;28;20203;-70
2021/04/09 00:41:54;;;;;;;0.20;0.20;;;;;;;;;;5057410;28;20200;-71
2021/04/09 00:44:19;;;;;;;0.20;0.20;;;;;;;;;;5063754;28;20203;-71
2021/04/09 00:46:45;;;;;;;0.30;0.30;;;;;;;;;;5063815;28;20200;-70
2021/04/09 00:49:12;;;;;;;0.20;0.20;;;;;;;;;;5063785;28;20436;-70
2021/04/09 00:51:38;;;;;;;0.30;0.30;;;;;;;;;;5063421;28;20226;-70
2021/04/09 00:54:04;;;;;;;0.57;0.57;;;;;;;;;;5063386;28;20203;-71
2021/04/09 00:56:30;;;;;;;0.20;0.20;;;;;;;;;;5063264;28;20216;-71
2021/04/09 00:58:57;;;;;;;0.20;0.20;;;;;;;;;;5063049;28;20204;-70
2021/04/09 01:01:23;;;;;;;0.30;0.30;;;;;;;;;;5063064;28;20491;-71
2021/04/09 01:03:49;;;;;;;0.87;0.87;;;;;;;;;;5060266;28;20200;-70
2021/04/09 01:06:16;;;;;;;0.20;0.20;;;;;;;;;;5063302;28;20444;-70
2021/04/09 01:08:41;;;;;;;1.03;1.03;;;;;;;;;;5062205;28;20254;-71
2021/04/09 01:11:07;;;;;;;0.20;0.20;;;;;;;;;;5059874;28;20215;-70
2021/04/09 01:13:33;;;;;;;0.30;0.30;;;;;;;;;;5056518;28;20212;-71
2021/04/09 01:15:59;;;;;;;0.20;0.20;;;;;;;;;;5052055;28;20223;-70
2021/04/09 01:18:27;;;;;;;0.20;0.20;;;;;;;;;;5060507;28;20200;-70
2021/04/09 01:21:07;;;;;;;0.20;0.20;;;;;;;;;;5049776;28;20211;-69
2021/04/09 01:23:47;;;;;;;1.13;1.13;;;;;;;;;;5061804;28;20558;-71
2021/04/09 01:26:31;;;;;;;0.30;0.30;;;;;;;;;;5062712;28;20261;-71
2021/04/09 01:29:10;;;;;;;0.60;0.60;;;;;;;;;;5053429;28;20214;-71
2021/04/09 01:31:42;;;;;;;0.30;0.30;;;;;;;;;;5048033;28;20197;-72
2021/04/09 01:34:08;;;;;;;0.40;0.40;;;;;;;;;;5061405;28;20211;-69
2021/04/09 01:36:47;;;;;;;0.80;0.80;;;;;;;;;;5060713;28;20232;-71
2021/04/09 01:39:14;;;;;;;0.20;0.20;;;;;;;;;;5061273;28;20208;-71
2021/04/09 01:41:41;;;;;;;0.20;0.20;;;;;;;;;;5053074;28;20214;-70
2021/04/09 01:44:09;;;;;;;0.50;0.50;;;;;;;;;;5066525;28;20199;-69
2021/04/09 01:46:36;;;;;;;0.80;0.80;;;;;;;;;;5066519;28;20207;-69
2021/04/09 01:49:03;;;;;;;0.30;0.30;;;;;;;;;;5066933;28;20224;-71
2021/04/09 01:51:29;;;;;;;0.30;0.30;;;;;;;;;;5049731;28;20215;-71
2021/04/09 01:53:55;;;;;;;0.30;0.30;;;;;;;;;;5063155;28;20230;-71
2021/04/09 01:56:21;;;;;;;0.20;0.20;;;;;;;;;;5066052;28;20242;-70
2021/04/09 01:58:48;;;;;;;0.20;0.20;;;;;;;;;;5062448;28;20266;-72
2021/04/09 02:01:14;;;;;;;0.90;0.90;;;;;;;;;;5060256;28;20267;-71
2021/04/09 02:03:41;;;;;;;0.80;0.80;;;;;;;;;;5056622;28;20496;-70
2021/04/09 02:06:08;;;;;;;0.40;0.40;;;;;;;;;;5054430;28;20507;-71
2021/04/09 02:08:35;;;;;;;0.30;0.30;;;;;;;;;;5066615;28;20215;-71
2021/04/09 02:11:01;;;;;;;0.40;0.40;;;;;;;;;;5066512;28;20200;-70
2021/04/09 02:13:27;;;;;;;0.30;0.30;;;;;;;;;;5066808;28;20212;-70
2021/04/09 02:15:54;;;;;;;0.83;0.83;;;;;;;;;;5063386;28;20228;-70
2021/04/09 02:18:20;;;;;;;0.20;0.20;;;;;;;;;;5062868;28;20211;-70
2021/04/09 02:20:46;;;;;;;0.30;0.30;;;;;;;;;;5066618;28;20207;-71
2021/04/09 02:23:13;;;;;;;0.30;0.30;;;;;;;;;;5065817;28;20243;-70
2021/04/09 02:25:38;;;;;;;0.50;0.50;;;;;;;;;;5062767;28;20222;-69
2021/04/09 02:28:04;;;;;;;0.30;0.30;;;;;;;;;;5061912;28;20223;-70
2021/04/09 02:30:30;;;;;;;0.30;0.30;;;;;;;;;;5061419;28;20238;-71
2021/04/09 02:32:56;;;;;;;0.23;0.23;;;;;;;;;;5062678;28;20238;-70
2021/04/09 02:35:22;;;;;;;0.20;0.20;;;;;;;;;;5064725;28;20200;-70
2021/04/09 02:37:49;;;;;;;0.30;0.30;;;;;;;;;;5064730;28;20235;-70
2021/04/09 02:40:17;;;;;;;0.87;0.87;;;;;;;;;;5056872;28;20204;-73
2021/04/09 02:42:44;;;;;;;0.30;0.30;;;;;;;;;;5055782;28;20208;-69
2021/04/09 02:45:11;;;;;;;0.50;0.50;;;;;;;;;;5065332;28;20236;-70
2021/04/09 02:47:38;;;;;;;0.30;0.30;;;;;;;;;;5062852;28;20204;-70
2021/04/09 02:50:05;;;;;;;0.30;0.30;;;;;;;;;;5058602;28;20517;-69
2021/04/09 02:52:32;;;;;;;0.30;0.30;;;;;;;;;;5065528;28;20207;-71
2021/04/09 02:54:59;;;;;;;0.63;0.63;;;;;;;;;;5061286;28;20222;-71
2021/04/09 02:57:27;;;;;;;0.30;0.30;;;;;;;;;;5057207;28;20224;-70
2021/04/09 02:59:53;;;;;;;0.30;0.30;;;;;;;;;;5063483;28;20208;-70
2021/04/09 03:02:19;;;;;;;0.30;0.30;;;;;;;;;;5062238;28;20204;-69
2021/04/09 03:04:45;;;;;;;0.30;0.30;;;;;;;;;;5065254;28;20429;-69
2021/04/09 03:07:11;;;;;;;0.30;0.30;;;;;;;;;;5061018;28;20196;-70
2021/04/09 03:09:37;;;;;;;0.40;0.40;;;;;;;;;;5064966;28;20204;-71
2021/04/09 03:12:10;;;;;;;0.30;0.30;;;;;;;;;;5063646;28;20254;-70
2021/04/09 03:14:37;;;;;;;0.30;0.30;;;;;;;;;;5062381;28;20204;-70
2021/04/09 03:17:04;;;;;;;0.20;0.20;;;;;;;;;;5063107;28;20388;-71
2021/04/09 03:19:30;;;;;;;0.30;0.30;;;;;;;;;;5064923;28;20207;-71
2021/04/09 03:21:56;;;;;;;0.20;0.20;;;;;;;;;;5064819;28;20199;-71
2021/04/09 03:24:21;;;;;;;0.30;0.30;;;;;;;;;;5059744;28;20196;-70
2021/04/09 03:26:47;;;;;;;0.50;0.50;;;;;;;;;;5065146;28;20208;-70
2021/04/09 03:29:13;;;;;;;0.30;0.30;;;;;;;;;;5065088;28;20199;-70
2021/04/09 03:31:39;;;;;;;0.30;0.30;;;;;;;;;;5065100;28;20208;-70
2021/04/09 03:34:05;;;;;;;0.23;0.23;;;;;;;;;;5063203;28;20428;-71
2021/04/09 03:36:31;;;;;;;0.30;0.30;;;;;;;;;;5064223;28;20227;-70
2021/04/09 03:38:56;;;;;;;0.30;0.30;;;;;;;;;;5065278;28;20226;-70
2021/04/09 03:41:22;;;;;;;0.30;0.30;;;;;;;;;;5060433;28;20212;-70
2021/04/09 03:43:48;;;;;;;0.30;0.30;;;;;;;;;;5057048;28;20263;-70
2021/04/09 03:46:14;;;;;;;0.20;0.20;;;;;;;;;;5061341;28;20476;-70
2021/04/09 03:48:40;;;;;;;0.20;0.20;;;;;;;;;;5064550;28;20222;-69
2021/04/09 03:51:06;;;;;;;0.30;0.30;;;;;;;;;;5058444;28;20303;-69
2021/04/09 03:53:32;;;;;;;0.30;0.30;;;;;;;;;;5064566;28;20303;-70
2021/04/09 03:55:58;;;;;;;0.20;0.20;;;;;;;;;;5064142;28;20223;-71
2021/04/09 03:58:23;;;;;;;0.40;0.40;;;;;;;;;;5064111;28;20823;-71
2021/04/09 04:00:49;;;;;;;0.37;0.37;;;;;;;;;;5064302;28;20551;-69
2021/04/09 04:03:15;;;;;;;0.30;0.30;;;;;;;;;;5063762;28;20204;-69
2021/04/09 04:05:41;;;;;;;0.53;0.53;;;;;;;;;;5063781;28;20258;-70
2021/04/09 04:08:07;;;;;;;0.30;0.30;;;;;;;;;;5064179;28;20203;-69
2021/04/09 04:10:33;;;;;;;0.30;0.30;;;;;;;;;;5063350;28;20204;-70
2021/04/09 04:12:59;;;;;;;0.20;0.20;;;;;;;;;;5061861;28;20257;-70
2021/04/09 04:15:24;;;;;;;0.53;0.53;;;;;;;;;;5064308;28;20234;-70
2021/04/09 04:17:50;;;;;;;0.20;0.20;;;;;;;;;;5057332;28;20523;-70
2021/04/09 04:20:16;;;;;;;0.30;0.30;;;;;;;;;;5062804;28;20203;-69
2021/04/09 04:22:43;;;;;;;0.30;0.30;;;;;;;;;;5061595;28;20235;-70
2021/04/09 04:25:09;;;;;;;0.30;0.30;;;;;;;;;;5061448;28;20226;-70
2021/04/09 04:27:35;;;;;;;0.40;0.40;;;;;;;;;;5059956;28;20196;-70
2021/04/09 04:30:01;;;;;;;0.27;0.27;;;;;;;;;;5064182;28;20211;-69
2021/04/09 04:32:26;;;;;;;0.30;0.30;;;;;;;;;;5062448;28;20204;-70
2021/04/09 04:34:52;;;;;;;0.80;0.80;;;;;;;;;;5064606;28;20491;-70
2021/04/09 04:37:18;;;;;;;0.20;0.20;;;;;;;;;;5063806;28;20618;-69
2021/04/09 04:39:45;;;;;;;0.30;0.30;;;;;;;;;;5064358;28;20214;-69
2021/04/09 04:42:11;;;;;;;0.23;0.23;;;;;;;;;;5064267;28;20207;-72
2021/04/09 04:44:36;;;;;;;0.30;0.30;;;;;;;;;;5063940;28;20239;-70
2021/04/09 04:47:02;;;;;;;0.20;0.20;;;;;;;;;;5054655;28;20514;-71
2021/04/09 04:49:28;;;;;;;0.30;0.30;;;;;;;;;;5063376;28;20281;-70
2021/04/09 04:51:54;;;;;;;0.27;0.27;;;;;;;;;;5064036;28;20219;-71
2021/04/09 04:54:20;;;;;;;0.20;0.20;;;;;;;;;;5063644;28;20257;-70
2021/04/09 04:56:46;;;;;;;0.30;0.30;;;;;;;;;;5063999;28;20291;-70
2021/04/09 04:59:12;;;;;;;0.30;0.30;;;;;;;;;;5063719;28;20487;-70
2021/04/09 05:01:38;;;;;;;0.30;0.30;;;;;;;;;;5063667;28;20207;-71
2021/04/09 05:04:04;;;;;;;0.30;0.30;;;;;;;;;;5064009;28;20211;-71
2021/04/09 05:06:29;;;;;;;3.70;1.83;;;;;;;;;;5064432;28;20487;-71
2021/04/09 05:08:55;;;;;;;0.30;0.30;;;;;;;;;;5067330;28;20246;-71
2021/04/09 05:11:22;;;;;;;0.20;0.20;;;;;;;;;;5059054;28;20211;-71
2021/04/09 05:13:49;;;;;;;0.30;0.30;;;;;;;;;;5067201;28;20219;-71
2021/04/09 05:16:15;;;;;;;0.30;0.30;;;;;;;;;;5067429;28;20235;-71
2021/04/09 05:18:40;;;;;;;0.30;0.30;;;;;;;;;;5067746;28;20214;-71
2021/04/09 05:21:06;;;;;;;0.40;0.40;;;;;;;;;;5054605;28;20487;-72
2021/04/09 05:23:32;;;;;;;0.30;0.30;;;;;;;;;;5062312;28;20467;-70
2021/04/09 05:25:58;;;;;;;0.27;0.27;;;;;;;;;;5066782;28;20333;-69
2021/04/09 05:28:24;;;;;;;0.27;0.27;;;;;;;;;;5067655;28;20208;-70
2021/04/09 05:30:51;;;;;;;0.30;0.30;;;;;;;;;;5064418;28;20197;-70
2021/04/09 05:33:16;;;;;;;0.30;0.30;;;;;;;;;;5065952;28;20250;-70
2021/04/09 05:35:42;;;;;;;0.30;0.30;;;;;;;;;;5065897;28;20203;-70
2021/04/09 05:38:08;;;;;;;0.33;0.33;;;;;;;;;;5067413;28;20231;-71
2021/04/09 05:40:34;;;;;;;0.30;0.30;;;;;;;;;;5067276;28;20298;-69
2021/04/09 05:43:02;;;;;;;0.20;0.20;;;;;;;;;;5062929;28;20278;-71
2021/04/09 05:45:27;;;;;;;4.23;4.03;;;;;;;;;;5061067;28;20212;-70
2021/04/09 05:47:55;;;;;;;1.03;0.80;;;;;;;;;;5056386;28;20228;-71
2021/04/09 05:50:21;;;;;;;0.30;0.30;;;;;;;;;;5067086;28;20214;-70
2021/04/09 05:52:47;;;;;;;1.13;1.03;;;;;;;;;;5067047;28;20432;-69
2021/04/09 05:55:13;;;;;;;0.27;0.27;;;;;;;;;;5059125;28;20204;-71
2021/04/09 05:57:40;;;;;;;0.30;0.30;;;;;;;;;;5061098;28;20294;-70
2021/04/09 06:00:06;;;;;;;0.63;0.63;;;;;;;;;;5061765;28;20364;-71
2021/04/09 06:02:32;;;;;;;0.30;0.30;;;;;;;;;;5060166;28;20210;-70
2021/04/09 06:04:59;;;;;;;0.67;0.67;;;;;;;;;;5066421;28;20200;-70
2021/04/09 06:07:26;;;;;;;0.30;0.30;;;;;;;;;;5065989;28;20222;-70
2021/04/09 06:09:52;;;;;;;0.23;0.23;;;;;;;;;;5066898;28;20212;-70
2021/04/09 06:12:17;;;;;;;0.20;0.20;;;;;;;;;;5057475;28;20207;-69
2021/04/09 06:14:43;;;;;;;0.20;0.20;;;;;;;;;;5065694;28;20271;-70
2021/04/09 06:17:09;;;;;;;4.53;0.53;;;;;;;;;;5060052;28;20490;-71
2021/04/09 06:19:35;;;;;;;0.20;0.20;;;;;;;;;;5060088;28;20475;-70
2021/04/09 06:22:01;;;;;;;0.27;0.27;;;;;;;;;;5057438;28;20209;-71
2021/04/09 06:24:27;;;;;;;0.20;0.20;;;;;;;;;;5065440;28;20392;-71
2021/04/09 06:26:53;;;;;;;0.30;0.30;;;;;;;;;;5060792;28;20200;-72
2021/04/09 06:29:19;;;;;;;3.63;3.53;;;;;;;;;;5065957;28;20214;-70
2021/04/09 06:31:45;;;;;;;0.20;0.20;;;;;;;;;;5066094;28;20412;-71
2021/04/09 06:34:10;;;;;;;0.20;0.20;;;;;;;;;;5060692;28;20215;-72
2021/04/09 06:36:36;;;;;;;0.20;0.20;;;;;;;;;;5060523;28;20223;-71
2021/04/09 06:39:03;;;;;;;0.20;0.20;;;;;;;;;;5059102;28;20204;-71
2021/04/09 06:41:29;;;;;;;0.20;0.20;;;;;;;;;;5063188;28;20200;-72
2021/04/09 06:43:55;;;;;;;0.20;0.20;;;;;;;;;;5062117;28;20410;-72
2021/04/09 06:46:21;;;;;;;0.30;0.30;;;;;;;;;;5059917;28;20196;-71
2021/04/09 06:48:47;;;;;;;0.20;0.20;;;;;;;;;;5059519;28;20267;-70
2021/04/09 06:51:13;;;;;;;0.20;0.20;;;;;;;;;;5064837;28;20231;-71
2021/04/09 06:53:40;;;;;;;0.23;0.23;;;;;;;;;;5065159;28;20231;-71
2021/04/09 06:56:07;;;;;;;0.20;0.20;;;;;;;;;;5063077;28;20244;-70
2021/04/09 06:58:33;;;;;;;0.23;0.23;;;;;;;;;;5065179;28;20219;-71
2021/04/09 07:01:01;;;;;;;0.20;0.20;;;;;;;;;;5059092;28;20205;-70
2021/04/09 07:03:26;;;;;;;0.20;0.20;;;;;;;;;;5057887;28;20269;-71
2021/04/09 07:05:52;;;;;;;0.20;0.20;;;;;;;;;;5057656;28;20216;-71
2021/04/09 07:08:18;;;;;;;0.20;0.20;;;;;;;;;;5057451;28;20524;-72
2021/04/09 07:10:44;;;;;;;0.20;0.20;;;;;;;;;;5065857;28;20212;-71
2021/04/09 07:13:11;;;;;;;0.20;0.20;;;;;;;;;;5065776;28;20252;-72
2021/04/09 07:15:38;;;;;;;0.20;0.20;;;;;;;;;;5056968;28;20211;-71
2021/04/09 07:18:06;;;;;;;0.13;0.13;;;;;;;;;;5062814;28;20299;-71
2021/04/09 07:20:32;;;;;;;0.10;0.10;;;;;;;;;;5065042;28;20202;-71
2021/04/09 07:22:59;;;;;;;0.47;0.47;;;;;;;;;;5064296;28;20276;-71
2021/04/09 07:25:25;;;;;;;0.20;0.20;;;;;;;;;;5064327;28;20217;-72
2021/04/09 07:28:07;;;;;;;0.10;0.10;;;;;;;;;;5056221;28;20215;-71
2021/04/09 07:30:34;;;;;;;0.10;0.10;;;;;;;;;;5059630;28;20323;-73
2021/04/09 07:33:02;;;;;;;0.10;0.10;;;;;;;;;;5062574;28;20208;-71
2021/04/09 07:35:27;;;;;;;0.10;0.10;;;;;;;;;;5062631;28;20212;-72
2021/04/09 07:37:54;;;;;;;0.10;0.10;;;;;;;;;;5064519;28;20280;-71
2021/04/09 07:40:21;;;;;;;0.10;0.10;;;;;;;;;;5064272;28;20217;-72
2021/04/09 07:42:48;;;;;;;0.10;0.10;;;;;;;;;;5051131;28;20207;-72
2021/04/09 07:45:14;;;;;;;0.10;0.10;;;;;;;;;;5054698;28;20385;-73
2021/04/09 07:47:54;;;;;;;0.87;0.87;;;;;;;;;;5048254;28;20484;-71
2021/04/09 07:50:31;;;;;;;0.20;0.20;;;;;;;;;;5064906;28;20270;-71
2021/04/09 07:52:57;;;;;;;0.10;0.10;;;;;;;;;;5061412;28;20204;-72
2021/04/09 07:55:24;;;;;;;0.10;0.10;;;;;;;;;;5049356;28;20495;-72
2021/04/09 07:57:50;;;;;;;0.10;0.10;;;;;;;;;;5060110;28;20262;-70
2021/04/09 08:00:24;;;;;;;0.20;0.20;;;;;;;;;;5064083;28;20204;-72
2021/04/09 08:02:52;;;;;;;0.43;0.43;;;;;;;;;;5064528;28;20495;-73
2021/04/09 08:05:19;;;;;;;0.97;0.87;;;;;;;;;;5064327;28;20211;-70
2021/04/09 08:07:45;;;;;;;0.10;0.10;;;;;;;;;;5051607;28;20201;-71
2021/04/09 08:10:12;;;;;;;0.00;0.00;;;;;;;;;;5063367;28;20210;-71
2021/04/09 08:12:39;;;;;;;0.10;0.10;;;;;;;;;;5064196;28;20204;-71
2021/04/09 08:15:12;;;;;;;0.57;0.57;;;;;;;;;;5062299;28;20278;-70
2021/04/09 08:17:38;;;;;;;0.10;0.10;;;;;;;;;;5053533;28;20394;-72
2021/04/09 08:20:09;;;;;;;0.10;0.10;;;;;;;;;;5048400;28;20241;-71
2021/04/09 08:22:35;;;;;;;0.27;0.27;;;;;;;;;;5063670;28;20274;-71
2021/04/09 08:25:01;;;;;;;0.40;0.40;;;;;;;;;;5063781;28;20204;-70
2021/04/09 08:27:27;;;;;;;0.10;0.10;;;;;;;;;;5054979;28;20224;-71
2021/04/09 08:29:54;;;;;;;2.03;1.90;;;;;;;;;;5053560;28;20273;-71
2021/04/09 08:32:20;;;;;;;0.20;0.20;;;;;;;;;;5061857;28;20248;-72
2021/04/09 08:34:46;;;;;;;0.10;0.10;;;;;;;;;;5062493;28;20206;-70
2021/04/09 08:37:14;;;;;;;0.10;0.10;;;;;;;;;;5063680;28;20489;-70
2021/04/09 08:39:40;;;;;;;0.10;0.10;;;;;;;;;;5062868;28;20489;-72
2021/04/09 08:42:06;;;;;;;0.10;0.10;;;;;;;;;;5053153;28;20227;-71
2021/04/09 08:44:32;;;;;;;0.10;0.10;;;;;;;;;;5052774;28;20254;-71
2021/04/09 08:46:59;;;;;;;0.10;0.10;;;;;;;;;;5057362;28;20202;-71
2021/04/09 08:49:27;;;;;;;0.10;0.10;;;;;;;;;;5064719;28;20492;-71
2021/04/09 08:51:53;;;;;;;0.10;0.10;;;;;;;;;;5060896;28;20493;-72
2021/04/09 08:54:20;;;;;;;0.10;0.10;;;;;;;;;;5067227;28;20297;-71
2021/04/09 08:56:47;;;;;;;0.37;0.37;;;;;;;;;;5054828;28;20295;-72
2021/04/09 08:59:12;;;;;;;0.10;0.10;;;;;;;;;;5069944;28;20398;-70
2021/04/09 09:01:39;;;;;;;0.10;0.10;;;;;;;;;;5069926;28;20228;-71
2021/04/09 09:04:24;;;;;;;0.10;0.10;;;;;;;;;;5068773;28;20209;-71
2021/04/09 09:06:50;;;;;;;0.10;0.10;;;;;;;;;;5066546;28;20207;-72
2021/04/09 09:09:27;;;;;;;0.10;0.10;;;;;;;;;;5058223;28;20401;-71
2021/04/09 09:11:54;;;;;;;0.10;0.10;;;;;;;;;;5068151;28;20203;-70
2021/04/09 09:14:35;;;;;;;0.10;0.10;;;;;;;;;;5067296;28;20217;-72
2021/04/09 09:17:24;;;;;;;0.10;0.10;;;;;;;;;;5064852;28;20229;-71
2021/04/09 09:19:51;;;;;;;0.10;0.10;;;;;;;;;;5053983;28;20205;-71
2021/04/09 09:22:20;;;;;;;0.10;0.10;;;;;;;;;;5066921;28;20224;-71
2021/04/09 09:25:01;;;;;;;0.10;0.10;;;;;;;;;;5056038;28;20271;-71
2021/04/09 09:27:41;;;;;;;0.10;0.10;;;;;;;;;;5056887;28;20286;-70
2021/04/09 09:30:26;;;;;;;0.10;0.10;;;;;;;;;;5057542;28;20209;-71
2021/04/09 09:33:07;;;;;;;0.40;0.40;;;;;;;;;;5060351;28;20196;-71
2021/04/09 09:35:52;;;;;;;0.10;0.10;;;;;;;;;;5063602;28;20448;-71
2021/04/09 09:38:32;;;;;;;0.20;0.20;;;;;;;;;;5064298;28;20223;-71
2021/04/09 09:40:58;;;;;;;0.10;0.10;;;;;;;;;;5065039;28;20382;-72
2021/04/09 09:43:30;;;;;;;0.10;0.10;;;;;;;;;;5065432;28;20220;-70
2021/04/09 09:45:57;;;;;;;0.07;0.07;;;;;;;;;;5063841;28;20396;-71
2021/04/09 09:48:23;;;;;;;0.10;0.10;;;;;;;;;;5053523;28;20253;-70
2021/04/09 09:50:49;;;;;;;0.10;0.10;;;;;;;;;;5065363;28;20211;-71
2021/04/09 09:53:15;;;;;;;0.50;0.50;;;;;;;;;;5065211;28;20204;-71
2021/04/09 09:55:42;;;;;;;0.10;0.10;;;;;;;;;;5053186;28;20305;-72
2021/04/09 09:58:10;;;;;;;0.10;0.10;;;;;;;;;;5063217;28;20235;-71
2021/04/09 10:00:37;;;;;;;0.10;0.10;;;;;;;;;;5065184;28;20231;-71
2021/04/09 10:03:14;;;;;;;0.10;0.10;;;;;;;;;;5065447;28;20204;-71
2021/04/09 10:05:41;;;;;;;0.10;0.10;;;;;;;;;;5064937;28;20249;-70
2021/04/09 10:08:07;;;;;;;0.10;0.10;;;;;;;;;;5060535;28;20512;-71
2021/04/09 10:10:39;;;;;;;0.10;0.10;;;;;;;;;;5064970;28;20204;-72
2021/04/09 10:13:19;;;;;;;0.10;0.10;;;;;;;;;;5064799;28;20203;-72
2021/04/09 10:15:45;;;;;;;0.10;0.10;;;;;;;;;;5063703;28;20202;-72
2021/04/09 10:18:11;;;;;;;0.10;0.10;;;;;;;;;;5065204;28;20232;-72
2021/04/09 10:20:37;;;;;;;0.10;0.10;;;;;;;;;;5057666;28;20221;-71
2021/04/09 10:23:04;;;;;;;0.00;0.00;;;;;;;;;;5041579;28;559158;-72
2021/04/09 10:25:30;;;;;;;0.10;0.10;;;;;;;;;;5054683;28;20266;-71
2021/04/09 10:27:56;;;;;;;0.10;0.10;;;;;;;;;;5062253;28;20210;-71
2021/04/09 10:30:25;;;;;;;0.03;0.03;;;;;;;;;;5061603;28;20241;-71
2021/04/09 10:32:52;;;;;;;0.10;0.10;;;;;;;;;;5066029;28;20217;-72
2021/04/09 10:35:21;;;;;;;0.10;0.10;;;;;;;;;;5065941;28;20497;-71
2021/04/09 10:37:48;;;;;;;0.10;0.10;;;;;;;;;;5065777;28;20229;-71
2021/04/09 10:40:14;;;;;;;0.10;0.10;;;;;;;;;;5065596;28;20503;-71
2021/04/09 10:42:40;;;;;;;0.10;0.10;;;;;;;;;;5064918;28;20214;-72
2021/04/09 10:45:16;;;;;;;0.10;0.10;;;;;;;;;;5065002;28;20202;-65
2021/04/09 10:47:42;;;;;;;0.05;0.05;;;;;;;;;;5063005;28;20211;-63
2021/04/09 10:50:09;;;;;;;0.10;0.10;;;;;;;;;;5064585;28;20230;-67
2021/04/09 10:52:35;;;;;;;0.10;0.10;;;;;;;;;;5062241;28;20207;-70
2021/04/09 10:55:02;;;;;;;0.90;0.90;;;;;;;;;;5054363;28;20279;-68
2021/04/09 10:57:34;;;;;;;0.10;0.10;;;;;;;;;;5061976;28;20236;-69
2021/04/09 11:00:01;;;;;;;0.10;0.10;;;;;;;;;;5053836;28;20205;-64
2021/04/09 11:02:27;;;;;;;0.10;0.10;;;;;;;;;;5060130;28;20200;-66
2021/04/09 11:04:53;;;;;;;0.03;0.03;;;;;;;;;;5061152;28;20375;-65
2021/04/09 11:07:19;;;;;;;0.30;0.30;;;;;;;;;;5056388;28;20219;-65
2021/04/09 11:09:47;;;;;;;1.25;1.15;;;;;;;;;;5062194;28;20204;-66
2021/04/09 11:12:21;;;;;;;0.10;0.10;;;;;;;;;;5063289;28;20534;-67
2021/04/09 11:14:48;;;;;;;0.10;0.10;;;;;;;;;;5063362;28;20254;-63
2021/04/09 11:17:23;;;;;;;0.10;0.10;;;;;;;;;;5055855;28;20224;-69
2021/04/09 11:19:53;;;;;;;0.10;0.10;;;;;;;;;;5057110;28;20427;-69
2021/04/09 11:22:19;;;;;;;0.10;0.10;;;;;;;;;;5052376;28;20239;-71
2021/04/09 11:24:55;;;;;;;0.05;0.05;;;;;;;;;;5056094;28;20262;-70
2021/04/09 11:27:23;;;;;;;0.00;0.00;;;;;;;;;;5063557;28;20196;-67
2021/04/09 11:29:49;;;;;;;0.00;0.00;;;;;;;;;;5057479;28;20209;-68
2021/04/09 11:32:17;;;;;;;0.10;0.10;;;;;;;;;;5061781;28;20220;-66
2021/04/09 11:34:44;;;;;;;0.03;0.03;;;;;;;;;;5052171;28;20224;-70
2021/04/09 11:37:10;;;;;;;0.10;0.10;;;;;;;;;;5060858;28;20222;-72
2021/04/09 11:39:47;;;;;;;0.10;0.10;;;;;;;;;;5053792;28;20403;-68
2021/04/09 11:42:13;;;;;;;0.10;0.10;;;;;;;;;;5053426;28;20378;-71
2021/04/09 11:44:40;;;;;;;0.10;0.10;;;;;;;;;;5060840;28;20242;-68
2021/04/09 11:47:21;;;;;;;0.10;0.10;;;;;;;;;;5057436;28;20265;-69
2021/04/09 11:49:47;;;;;;;0.10;0.10;;;;;;;;;;5056803;28;20197;-67
2021/04/09 11:52:14;;;;;;;0.10;0.10;;;;;;;;;;5057631;28;20256;-74
2021/04/09 11:54:41;;;;;;;0.10;0.10;;;;;;;;;;5059950;28;20428;-74
2021/04/09 11:57:20;;;;;;;0.10;0.10;;;;;;;;;;5062050;28;20243;-75
2021/04/09 11:59:47;;;;;;;0.10;0.10;;;;;;;;;;5057825;28;20207;-73
2021/04/09 12:02:16;;;;;;;0.10;0.10;;;;;;;;;;5057370;28;20275;-73
2021/04/09 12:04:42;;;;;;;0.00;0.00;;;;;;;;;;5055011;28;20233;-74
2021/04/09 12:07:11;;;;;;;0.10;0.10;;;;;;;;;;5058830;28;20204;-73
2021/04/09 12:09:37;;;;;;;0.15;0.15;;;;;;;;;;5062323;28;20227;-74
2021/04/09 12:12:03;;;;;;;0.00;0.00;;;;;;;;;;5062146;28;20251;-78
2021/04/09 12:14:33;;;;;;;0.10;0.10;;;;;;;;;;5062520;28;20376;-77
2021/04/09 12:17:00;;;;;;;0.10;0.10;;;;;;;;;;5059812;28;20226;-75
2021/04/09 12:19:26;;;;;;;0.00;0.00;;;;;;;;;;5057413;28;20216;-75
2021/04/09 12:21:52;;;;;;;0.10;0.10;;;;;;;;;;5061164;28;20208;-75
2021/04/09 12:24:18;;;;;;;0.10;0.10;;;;;;;;;;5059405;28;20231;-72
2021/04/09 12:26:45;;;;;;;0.10;0.10;;;;;;;;;;5059982;28;20207;-73
2021/04/09 12:29:11;;;;;;;0.05;0.05;;;;;;;;;;5058940;28;20208;-78
2021/04/09 12:31:37;;;;;;;0.10;0.10;;;;;;;;;;5062628;28;20211;-75
2021/04/09 12:34:04;;;;;;;0.05;0.05;;;;;;;;;;5060211;28;20289;-73
2021/04/09 12:36:29;;;;;;;0.00;0.00;;;;;;;;;;5059031;28;20207;-75
2021/04/09 12:38:55;;;;;;;0.00;0.00;;;;;;;;;;5061584;28;20215;-73
2021/04/09 12:41:21;;;;;;;0.10;0.10;;;;;;;;;;5063129;28;20334;-72
2021/04/09 12:43:49;;;;;;;0.00;0.00;;;;;;;;;;5059907;28;20397;-73
2021/04/09 12:46:14;;;;;;;0.10;0.10;;;;;;;;;;5063711;28;20373;-76
2021/04/09 12:48:40;;;;;;;0.00;0.00;;;;;;;;;;5060326;28;20211;-75
2021/04/09 12:51:07;;;;;;;0.83;0.83;;;;;;;;;;5058458;28;20271;-73
2021/04/09 12:53:32;;;;;;;0.10;0.10;;;;;;;;;;5058658;28;20226;-74
2021/04/09 12:55:58;;;;;;;0.10;0.10;;;;;;;;;;5055622;28;20222;-74
2021/04/09 12:58:24;;;;;;;0.10;0.10;;;;;;;;;;5057363;28;20239;-75
2021/04/09 13:00:50;;;;;;;0.10;0.10;;;;;;;;;;5053975;28;20203;-73
2021/04/09 13:03:16;;;;;;;0.10;0.10;;;;;;;;;;5059243;28;20236;-73
2021/04/09 13:05:41;;;;;;;0.10;0.10;;;;;;;;;;5062387;28;20228;-75
2021/04/09 13:08:08;;;;;;;0.40;0.40;;;;;;;;;;5062450;28;20223;-73
2021/04/09 13:10:34;;;;;;;0.10;0.10;;;;;;;;;;5062572;28;20211;-72
2021/04/09 13:13:00;;;;;;;0.10;0.10;;;;;;;;;;5062470;28;20212;-74
2021/04/09 13:15:26;;;;;;;0.10;0.10;;;;;;;;;;5062394;28;20203;-74
2021/04/09 13:17:52;;;;;;;0.10;0.10;;;;;;;;;;5062242;28;20224;-73
2021/04/09 13:20:18;;;;;;;1.07;1.07;;;;;;;;;;5062077;28;20271;-74
2021/04/09 13:22:44;;;;;;;0.10;0.10;;;;;;;;;;5061954;28;20498;-74
2021/04/09 13:25:11;;;;;;;0.10;0.10;;;;;;;;;;5056744;28;20234;-76
2021/04/09 13:27:37;;;;;;;0.10;0.10;;;;;;;;;;5056954;28;20289;-73
2021/04/09 13:30:04;;;;;;;0.10;0.10;;;;;;;;;;5062557;28;20204;-73
2021/04/09 13:32:30;;;;;;;0.10;0.10;;;;;;;;;;5062542;28;20413;-73
2021/04/09 13:34:55;;;;;;;0.10;0.10;;;;;;;;;;5057285;28;20261;-75
2021/04/09 13:37:21;;;;;;;0.10;0.10;;;;;;;;;;5066333;28;20289;-74
2021/04/09 13:39:47;;;;;;;0.10;0.10;;;;;;;;;;5061762;28;20631;-72
2021/04/09 13:42:14;;;;;;;1.37;1.30;;;;;;;;;;5063852;28;20207;-74
2021/04/09 13:44:40;;;;;;;0.10;0.10;;;;;;;;;;5060253;28;20581;-74
2021/04/09 13:47:06;;;;;;;0.10;0.10;;;;;;;;;;5061561;28;20227;-74
2021/04/09 13:49:32;;;;;;;0.10;0.10;;;;;;;;;;5065649;28;20203;-73
2021/04/09 13:51:57;;;;;;;0.10;0.10;;;;;;;;;;5065669;28;20219;-69
2021/04/09 13:54:24;;;;;;;1.27;1.17;;;;;;;;;;5065790;28;20215;-63
2021/04/09 13:56:49;;;;;;;0.10;0.10;;;;;;;;;;5063317;28;20230;-62
2021/04/09 13:59:17;;;;;;;0.10;0.10;;;;;;;;;;5065905;28;20234;-63
2021/04/09 14:01:42;;;;;;;0.10;0.10;;;;;;;;;;5064520;28;20219;-64
2021/04/09 14:04:08;;;;;;;0.10;0.10;;;;;;;;;;5065781;28;20225;-64
2021/04/09 14:06:34;;;;;;;0.10;0.10;;;;;;;;;;5065529;28;20204;-64
2021/04/09 14:09:00;;;;;;;0.10;0.10;;;;;;;;;;5059425;28;20403;-63
2021/04/09 14:11:26;;;;;;;0.10;0.10;;;;;;;;;;5049241;28;20217;-64
2021/04/09 14:13:52;;;;;;;0.10;0.10;;;;;;;;;;5054760;28;20275;-64
2021/04/09 14:16:18;;;;;;;0.10;0.10;;;;;;;;;;5065777;28;20253;-64
2021/04/09 14:18:44;;;;;;;0.10;0.10;;;;;;;;;;5053864;28;20310;-64
2021/04/09 14:21:11;;;;;;;0.10;0.10;;;;;;;;;;5064091;28;20550;-64
2021/04/09 14:23:38;;;;;;;0.10;0.10;;;;;;;;;;5065049;28;20235;-64
2021/04/09 14:26:03;;;;;;;0.00;0.00;;;;;;;;;;5052143;28;20462;-64
2021/04/09 14:28:29;;;;;;;0.10;0.10;;;;;;;;;;5065188;28;20234;-68
2021/04/09 14:30:57;;;;;;;0.10;0.10;;;;;;;;;;5064480;28;20210;-73
2021/04/09 14:33:24;;;;;;;0.23;0.23;;;;;;;;;;5065057;28;20207;-71
2021/04/09 14:35:51;;;;;;;0.20;0.20;;;;;;;;;;5064953;28;20211;-75
2021/04/09 14:38:17;;;;;;;0.10;0.10;;;;;;;;;;5064399;28;20311;-73
2021/04/09 14:40:43;;;;;;;5.40;4.90;;;;;;;;;;5063659;28;20207;-73
2021/04/09 14:43:08;;;;;;;5.50;5.10;;;;;;;;;;5065022;28;20231;-72